sensor_id;sensor_type;location;lat;lon;timestamp;P1;P2;P0
83597;PMS5003;73565;45.774;15.892;2024-03-25T00:02:58;11;8;6
83597;PMS5003;73565;45.774;15.892;2024-03-25T00:06:02;10;10;8
83597;PMS5003;73565;45.774;15.892;2024-03-25T00:07:21;9;9;7
83597;PMS5003;73565;45.774;15.892;2024-03-25T00:09:21;7;7;6
83597;PMS5003;73565;45.774;15.892;2024-03-25T00:11:21;10;9;8
83597;PMS5003;73565;45.774;15.892;2024-03-25T00:13:21;8;8;6
83597;PMS5003;73565;45.774;15.892;2024-03-25T00:15:21;8;7;5
83597;PMS5003;73565;45.774;15.892;2024-03-25T00:17:21;11;10;8
83597;PMS5003;73565;45.774;15.892;2024-03-25T00:19:21;8;7;6
83597;PMS5003;73565;45.774;15.892;2024-03-25T00:21:21;10;10;8
83597;PMS5003;73565;45.774;15.892;2024-03-25T00:23:21;11;11;7
83597;PMS5003;73565;45.774;15.892;2024-03-25T00:25:21;9;9;7
83597;PMS5003;73565;45.774;15.892;2024-03-25T00:27:21;11;11;9
83597;PMS5003;73565;45.774;15.892;2024-03-25T00:29:21;15;12;10
83597;PMS5003;73565;45.774;15.892;2024-03-25T00:31:21;9;8;7
83597;PMS5003;73565;45.774;15.892;2024-03-25T00:33:21;11;11;8
83597;PMS5003;73565;45.774;15.892;2024-03-25T00:35:21;12;11;8
83597;PMS5003;73565;45.774;15.892;2024-03-25T00:37:21;9;9;7
83597;PMS5003;73565;45.774;15.892;2024-03-25T00:39:21;7;7;6
83597;PMS5003;73565;45.774;15.892;2024-03-25T00:41:21;9;9;7
83597;PMS5003;73565;45.774;15.892;2024-03-25T00:43:21;8;8;5
83597;PMS5003;73565;45.774;15.892;2024-03-25T00:45:21;10;10;8
83597;PMS5003;73565;45.774;15.892;2024-03-25T00:47:21;10;9;8
83597;PMS5003;73565;45.774;15.892;2024-03-25T00:49:21;11;10;8
83597;PMS5003;73565;45.774;15.892;2024-03-25T00:51:21;12;12;8
83597;PMS5003;73565;45.774;15.892;2024-03-25T00:53:21;12;11;9
83597;PMS5003;73565;45.774;15.892;2024-03-25T00:55:21;14;14;11
83597;PMS5003;73565;45.774;15.892;2024-03-25T00:57:21;11;11;8
83597;PMS5003;73565;45.774;15.892;2024-03-25T00:59:21;14;13;11
83597;PMS5003;73565;45.774;15.892;2024-03-25T01:01:21;15;14;11
83597;PMS5003;73565;45.774;15.892;2024-03-25T01:03:21;16;16;13
83597;PMS5003;73565;45.774;15.892;2024-03-25T01:05:21;14;14;11
83597;PMS5003;73565;45.774;15.892;2024-03-25T01:07:21;13;13;10
83597;PMS5003;73565;45.774;15.892;2024-03-25T01:09:21;13;13;9
83597;PMS5003;73565;45.774;15.892;2024-03-25T01:11:21;13;13;9
83597;PMS5003;73565;45.774;15.892;2024-03-25T01:13:21;11;11;9
83597;PMS5003;73565;45.774;15.892;2024-03-25T01:15:21;16;16;12
83597;PMS5003;73565;45.774;15.892;2024-03-25T01:17:21;13;13;12
83597;PMS5003;73565;45.774;15.892;2024-03-25T01:19:21;18;18;13
83597;PMS5003;73565;45.774;15.892;2024-03-25T01:21:21;16;14;9
83597;PMS5003;73565;45.774;15.892;2024-03-25T01:24:18;22;22;14
83597;PMS5003;73565;45.774;15.892;2024-03-25T01:26:03;16;14;10
83597;PMS5003;73565;45.774;15.892;2024-03-25T01:28:03;14;14;9
83597;PMS5003;73565;45.774;15.892;2024-03-25T01:30:04;16;16;11
83597;PMS5003;73565;45.774;15.892;2024-03-25T01:32:04;14;14;12
83597;PMS5003;73565;45.774;15.892;2024-03-25T01:34:03;13;11;9
83597;PMS5003;73565;45.774;15.892;2024-03-25T01:36:03;15;14;10
83597;PMS5003;73565;45.774;15.892;2024-03-25T01:38:03;16;15;10
83597;PMS5003;73565;45.774;15.892;2024-03-25T01:40:04;12;11;8
83597;PMS5003;73565;45.774;15.892;2024-03-25T01:41:12;17;17;14
83597;PMS5003;73565;45.774;15.892;2024-03-25T01:42:45;17;17;11
83597;PMS5003;73565;45.774;15.892;2024-03-25T01:44:45;17;16;12
83597;PMS5003;73565;45.774;15.892;2024-03-25T01:46:45;13;12;9
83597;PMS5003;73565;45.774;15.892;2024-03-25T01:48:45;13;12;9
83597;PMS5003;73565;45.774;15.892;2024-03-25T01:50:45;13;11;8
83597;PMS5003;73565;45.774;15.892;2024-03-25T01:52:45;15;15;11
83597;PMS5003;73565;45.774;15.892;2024-03-25T01:54:45;16;15;12
83597;PMS5003;73565;45.774;15.892;2024-03-25T01:58:44;17;16;10
83597;PMS5003;73565;45.774;15.892;2024-03-25T02:01:40;16;16;13
83597;PMS5003;73565;45.774;15.892;2024-03-25T02:02:43;14;14;12
83597;PMS5003;73565;45.774;15.892;2024-03-25T02:04:43;16;16;10
83597;PMS5003;73565;45.774;15.892;2024-03-25T02:06:44;12;12;10
83597;PMS5003;73565;45.774;15.892;2024-03-25T02:08:43;17;15;11
83597;PMS5003;73565;45.774;15.892;2024-03-25T02:09:25;15;13;9
83597;PMS5003;73565;45.774;15.892;2024-03-25T02:11:20;12;11;9
83597;PMS5003;73565;45.774;15.892;2024-03-25T02:13:20;13;12;10
83597;PMS5003;73565;45.774;15.892;2024-03-25T02:15:20;14;14;10
83597;PMS5003;73565;45.774;15.892;2024-03-25T02:17:20;15;15;11
83597;PMS5003;73565;45.774;15.892;2024-03-25T02:19:20;13;12;10
83597;PMS5003;73565;45.774;15.892;2024-03-25T02:21:20;16;16;11
83597;PMS5003;73565;45.774;15.892;2024-03-25T02:23:20;13;13;11
83597;PMS5003;73565;45.774;15.892;2024-03-25T02:25:53;20;19;14
83597;PMS5003;73565;45.774;15.892;2024-03-25T02:26:38;18;18;13
83597;PMS5003;73565;45.774;15.892;2024-03-25T02:27:42;16;16;12
83597;PMS5003;73565;45.774;15.892;2024-03-25T02:29:42;15;15;9
83597;PMS5003;73565;45.774;15.892;2024-03-25T02:31:42;16;16;12
83597;PMS5003;73565;45.774;15.892;2024-03-25T02:33:42;21;20;15
83597;PMS5003;73565;45.774;15.892;2024-03-25T02:37:44;10;8;7
83597;PMS5003;73565;45.774;15.892;2024-03-25T02:39:44;19;18;11
83597;PMS5003;73565;45.774;15.892;2024-03-25T02:41:58;21;19;15
83597;PMS5003;73565;45.774;15.892;2024-03-25T02:43:58;18;18;15
83597;PMS5003;73565;45.774;15.892;2024-03-25T02:45:58;19;19;15
83597;PMS5003;73565;45.774;15.892;2024-03-25T02:47:58;21;20;14
83597;PMS5003;73565;45.774;15.892;2024-03-25T02:49:58;18;16;12
83597;PMS5003;73565;45.774;15.892;2024-03-25T02:51:58;19;18;12
83597;PMS5003;73565;45.774;15.892;2024-03-25T02:53:58;17;17;12
83597;PMS5003;73565;45.774;15.892;2024-03-25T02:55:58;23;21;16
83597;PMS5003;73565;45.774;15.892;2024-03-25T02:57:58;21;20;15
83597;PMS5003;73565;45.774;15.892;2024-03-25T02:59:58;20;20;13
83597;PMS5003;73565;45.774;15.892;2024-03-25T03:01:58;17;17;13
83597;PMS5003;73565;45.774;15.892;2024-03-25T03:03:58;16;16;13
83597;PMS5003;73565;45.774;15.892;2024-03-25T03:05:58;22;22;15
83597;PMS5003;73565;45.774;15.892;2024-03-25T03:07:58;21;20;14
83597;PMS5003;73565;45.774;15.892;2024-03-25T03:09:58;22;20;15
83597;PMS5003;73565;45.774;15.892;2024-03-25T03:11:58;18;18;13
83597;PMS5003;73565;45.774;15.892;2024-03-25T03:14:36;33;32;21
83597;PMS5003;73565;45.774;15.892;2024-03-25T03:16:34;18;18;14
83597;PMS5003;73565;45.774;15.892;2024-03-25T03:18:34;16;16;12
83597;PMS5003;73565;45.774;15.892;2024-03-25T03:20:34;16;16;12
83597;PMS5003;73565;45.774;15.892;2024-03-25T03:22:35;17;16;13
83597;PMS5003;73565;45.774;15.892;2024-03-25T03:24:34;19;18;12
83597;PMS5003;73565;45.774;15.892;2024-03-25T03:26:34;20;19;13
83597;PMS5003;73565;45.774;15.892;2024-03-25T03:28:34;17;17;13
83597;PMS5003;73565;45.774;15.892;2024-03-25T03:30:34;19;19;15
83597;PMS5003;73565;45.774;15.892;2024-03-25T03:32:34;20;20;13
83597;PMS5003;73565;45.774;15.892;2024-03-25T03:34:34;12;11;10
83597;PMS5003;73565;45.774;15.892;2024-03-25T03:36:34;17;17;14
83597;PMS5003;73565;45.774;15.892;2024-03-25T03:38:34;17;16;13
83597;PMS5003;73565;45.774;15.892;2024-03-25T03:40:34;16;15;11
83597;PMS5003;73565;45.774;15.892;2024-03-25T03:42:34;13;13;9
83597;PMS5003;73565;45.774;15.892;2024-03-25T03:44:34;9;8;7
83597;PMS5003;73565;45.774;15.892;2024-03-25T03:46:34;16;15;12
83597;PMS5003;73565;45.774;15.892;2024-03-25T03:48:34;14;14;10
83597;PMS5003;73565;45.774;15.892;2024-03-25T03:50:34;14;13;10
83597;PMS5003;73565;45.774;15.892;2024-03-25T03:52:34;16;16;12
83597;PMS5003;73565;45.774;15.892;2024-03-25T03:54:34;12;12;10
83597;PMS5003;73565;45.774;15.892;2024-03-25T03:56:34;18;16;13
83597;PMS5003;73565;45.774;15.892;2024-03-25T03:58:34;14;14;10
83597;PMS5003;73565;45.774;15.892;2024-03-25T04:00:36;14;14;11
83597;PMS5003;73565;45.774;15.892;2024-03-25T04:03:11;15;15;12
83597;PMS5003;73565;45.774;15.892;2024-03-25T04:04:28;12;11;9
83597;PMS5003;73565;45.774;15.892;2024-03-25T04:06:28;10;10;8
83597;PMS5003;73565;45.774;15.892;2024-03-25T04:08:28;9;9;8
83597;PMS5003;73565;45.774;15.892;2024-03-25T04:10:28;11;10;8
83597;PMS5003;73565;45.774;15.892;2024-03-25T04:12:28;13;13;10
83597;PMS5003;73565;45.774;15.892;2024-03-25T04:14:28;12;11;9
83597;PMS5003;73565;45.774;15.892;2024-03-25T04:16:28;8;8;7
83597;PMS5003;73565;45.774;15.892;2024-03-25T04:18:28;9;9;7
83597;PMS5003;73565;45.774;15.892;2024-03-25T04:20:28;11;10;6
83597;PMS5003;73565;45.774;15.892;2024-03-25T04:22:28;11;11;8
83597;PMS5003;73565;45.774;15.892;2024-03-25T04:24:28;8;8;6
83597;PMS5003;73565;45.774;15.892;2024-03-25T04:26:28;12;12;9
83597;PMS5003;73565;45.774;15.892;2024-03-25T04:28:28;10;10;7
83597;PMS5003;73565;45.774;15.892;2024-03-25T04:30:28;15;11;8
83597;PMS5003;73565;45.774;15.892;2024-03-25T04:32:28;15;13;10
83597;PMS5003;73565;45.774;15.892;2024-03-25T04:34:28;14;13;9
83597;PMS5003;73565;45.774;15.892;2024-03-25T04:36:28;13;13;9
83597;PMS5003;73565;45.774;15.892;2024-03-25T04:38:28;11;10;7
83597;PMS5003;73565;45.774;15.892;2024-03-25T04:40:28;10;9;8
83597;PMS5003;73565;45.774;15.892;2024-03-25T04:42:28;15;13;9
83597;PMS5003;73565;45.774;15.892;2024-03-25T04:44:28;13;13;10
83597;PMS5003;73565;45.774;15.892;2024-03-25T04:46:28;15;13;10
83597;PMS5003;73565;45.774;15.892;2024-03-25T04:48:28;14;14;11
83597;PMS5003;73565;45.774;15.892;2024-03-25T04:52:38;16;15;12
83597;PMS5003;73565;45.774;15.892;2024-03-25T04:54:38;12;11;9
83597;PMS5003;73565;45.774;15.892;2024-03-25T04:56:38;15;14;10
83597;PMS5003;73565;45.774;15.892;2024-03-25T04:58:38;14;13;10
83597;PMS5003;73565;45.774;15.892;2024-03-25T05:00:38;14;14;9
83597;PMS5003;73565;45.774;15.892;2024-03-25T05:02:38;20;17;10
83597;PMS5003;73565;45.774;15.892;2024-03-25T05:04:38;13;13;10
83597;PMS5003;73565;45.774;15.892;2024-03-25T05:06:38;11;11;10
83597;PMS5003;73565;45.774;15.892;2024-03-25T05:08:38;13;13;9
83597;PMS5003;73565;45.774;15.892;2024-03-25T05:10:38;13;13;10
83597;PMS5003;73565;45.774;15.892;2024-03-25T05:12:38;11;11;8
83597;PMS5003;73565;45.774;15.892;2024-03-25T05:14:38;18;18;12
83597;PMS5003;73565;45.774;15.892;2024-03-25T05:16:38;15;14;10
83597;PMS5003;73565;45.774;15.892;2024-03-25T05:19:09;18;18;12
83597;PMS5003;73565;45.774;15.892;2024-03-25T05:20:59;17;15;12
83597;PMS5003;73565;45.774;15.892;2024-03-25T05:22:59;18;18;12
83597;PMS5003;73565;45.774;15.892;2024-03-25T05:24:59;13;12;9
83597;PMS5003;73565;45.774;15.892;2024-03-25T05:26:59;18;18;13
83597;PMS5003;73565;45.774;15.892;2024-03-25T05:28:59;15;15;11
83597;PMS5003;73565;45.774;15.892;2024-03-25T05:31:04;17;17;12
83597;PMS5003;73565;45.774;15.892;2024-03-25T05:32:59;17;17;11
83597;PMS5003;73565;45.774;15.892;2024-03-25T05:34:59;18;18;12
83597;PMS5003;73565;45.774;15.892;2024-03-25T05:36:59;19;17;13
83597;PMS5003;73565;45.774;15.892;2024-03-25T05:38:59;12;12;10
83597;PMS5003;73565;45.774;15.892;2024-03-25T05:40:59;16;16;11
83597;PMS5003;73565;45.774;15.892;2024-03-25T05:42:59;15;15;10
83597;PMS5003;73565;45.774;15.892;2024-03-25T05:44:59;17;16;12
83597;PMS5003;73565;45.774;15.892;2024-03-25T05:46:59;11;11;10
83597;PMS5003;73565;45.774;15.892;2024-03-25T05:48:59;11;11;6
83597;PMS5003;73565;45.774;15.892;2024-03-25T05:49:34;18;18;14
83597;PMS5003;73565;45.774;15.892;2024-03-25T05:50:48;13;13;11
83597;PMS5003;73565;45.774;15.892;2024-03-25T05:52:48;15;15;13
83597;PMS5003;73565;45.774;15.892;2024-03-25T05:54:48;10;10;5
83597;PMS5003;73565;45.774;15.892;2024-03-25T05:56:48;19;19;12
83597;PMS5003;73565;45.774;15.892;2024-03-25T05:58:48;16;14;9
83597;PMS5003;73565;45.774;15.892;2024-03-25T06:01:15;17;17;12
83597;PMS5003;73565;45.774;15.892;2024-03-25T06:03:15;13;13;10
83597;PMS5003;73565;45.774;15.892;2024-03-25T06:05:15;14;14;12
83597;PMS5003;73565;45.774;15.892;2024-03-25T06:07:15;14;13;9
83597;PMS5003;73565;45.774;15.892;2024-03-25T06:09:14;11;10;8
83597;PMS5003;73565;45.774;15.892;2024-03-25T06:11:15;15;15;11
83597;PMS5003;73565;45.774;15.892;2024-03-25T06:13:14;15;15;12
83597;PMS5003;73565;45.774;15.892;2024-03-25T06:15:15;14;12;10
83597;PMS5003;73565;45.774;15.892;2024-03-25T06:18:18;26;23;12
83597;PMS5003;73565;45.774;15.892;2024-03-25T06:20:04;17;15;12
83597;PMS5003;73565;45.774;15.892;2024-03-25T06:22:04;15;14;9
83597;PMS5003;73565;45.774;15.892;2024-03-25T06:24:04;12;12;11
83597;PMS5003;73565;45.774;15.892;2024-03-25T06:26:04;14;13;9
83597;PMS5003;73565;45.774;15.892;2024-03-25T06:28:04;11;11;10
83597;PMS5003;73565;45.774;15.892;2024-03-25T06:30:04;15;14;11
83597;PMS5003;73565;45.774;15.892;2024-03-25T06:32:04;12;11;9
83597;PMS5003;73565;45.774;15.892;2024-03-25T06:34:04;14;12;9
83597;PMS5003;73565;45.774;15.892;2024-03-25T06:36:04;10;9;5
83597;PMS5003;73565;45.774;15.892;2024-03-25T06:38:04;14;14;11
83597;PMS5003;73565;45.774;15.892;2024-03-25T06:40:44;16;16;11
83597;PMS5003;73565;45.774;15.892;2024-03-25T06:41:46;15;15;10
83597;PMS5003;73565;45.774;15.892;2024-03-25T06:43:46;15;14;11
83597;PMS5003;73565;45.774;15.892;2024-03-25T06:45:46;17;17;12
83597;PMS5003;73565;45.774;15.892;2024-03-25T06:47:46;12;12;10
83597;PMS5003;73565;45.774;15.892;2024-03-25T06:49:46;14;12;10
83597;PMS5003;73565;45.774;15.892;2024-03-25T06:53:07;12;12;11
83597;PMS5003;73565;45.774;15.892;2024-03-25T06:54:55;11;11;10
83597;PMS5003;73565;45.774;15.892;2024-03-25T06:56:55;12;11;10
83597;PMS5003;73565;45.774;15.892;2024-03-25T06:58:55;12;11;9
83597;PMS5003;73565;45.774;15.892;2024-03-25T07:00:55;11;10;8
83597;PMS5003;73565;45.774;15.892;2024-03-25T07:02:55;13;12;10
83597;PMS5003;73565;45.774;15.892;2024-03-25T07:04:55;13;12;8
83597;PMS5003;73565;45.774;15.892;2024-03-25T07:06:55;14;14;12
83597;PMS5003;73565;45.774;15.892;2024-03-25T07:08:55;10;9;8
83597;PMS5003;73565;45.774;15.892;2024-03-25T07:10:55;10;10;8
83597;PMS5003;73565;45.774;15.892;2024-03-25T07:12:55;6;6;5
83597;PMS5003;73565;45.774;15.892;2024-03-25T07:14:55;9;9;8
83597;PMS5003;73565;45.774;15.892;2024-03-25T07:16:55;11;11;6
83597;PMS5003;73565;45.774;15.892;2024-03-25T07:18:55;8;8;7
83597;PMS5003;73565;45.774;15.892;2024-03-25T07:20:55;8;7;6
83597;PMS5003;73565;45.774;15.892;2024-03-25T07:21:42;9;8;8
83597;PMS5003;73565;45.774;15.892;2024-03-25T07:23:22;6;5;4
83597;PMS5003;73565;45.774;15.892;2024-03-25T07:25:22;6;6;5
83597;PMS5003;73565;45.774;15.892;2024-03-25T07:27:22;5;5;4
83597;PMS5003;73565;45.774;15.892;2024-03-25T07:29:22;4;4;3
83597;PMS5003;73565;45.774;15.892;2024-03-25T07:31:22;7;6;5
83597;PMS5003;73565;45.774;15.892;2024-03-25T07:33:22;5;5;5
83597;PMS5003;73565;45.774;15.892;2024-03-25T07:35:22;6;5;5
83597;PMS5003;73565;45.774;15.892;2024-03-25T07:37:22;7;7;6
83597;PMS5003;73565;45.774;15.892;2024-03-25T07:39:22;6;6;5
83597;PMS5003;73565;45.774;15.892;2024-03-25T07:41:22;6;5;4
83597;PMS5003;73565;45.774;15.892;2024-03-25T07:43:22;3;2;1
83597;PMS5003;73565;45.774;15.892;2024-03-25T07:45:22;6;5;4
83597;PMS5003;73565;45.774;15.892;2024-03-25T07:47:22;5;5;4
83597;PMS5003;73565;45.774;15.892;2024-03-25T07:49:22;5;4;4
83597;PMS5003;73565;45.774;15.892;2024-03-25T07:51:22;4;4;4
83597;PMS5003;73565;45.774;15.892;2024-03-25T07:53:22;5;5;5
83597;PMS5003;73565;45.774;15.892;2024-03-25T07:55:22;5;4;3
83597;PMS5003;73565;45.774;15.892;2024-03-25T07:57:22;5;5;4
83597;PMS5003;73565;45.774;15.892;2024-03-25T08:00:30;7;7;6
83597;PMS5003;73565;45.774;15.892;2024-03-25T08:02:17;4;4;4
83597;PMS5003;73565;45.774;15.892;2024-03-25T08:04:16;3;3;3
83597;PMS5003;73565;45.774;15.892;2024-03-25T08:06:17;6;6;5
83597;PMS5003;73565;45.774;15.892;2024-03-25T08:08:17;5;5;3
83597;PMS5003;73565;45.774;15.892;2024-03-25T08:10:17;5;4;4
83597;PMS5003;73565;45.774;15.892;2024-03-25T08:12:17;5;5;4
83597;PMS5003;73565;45.774;15.892;2024-03-25T08:14:17;6;6;5
83597;PMS5003;73565;45.774;15.892;2024-03-25T08:16:17;6;6;5
83597;PMS5003;73565;45.774;15.892;2024-03-25T08:18:17;6;6;6
83597;PMS5003;73565;45.774;15.892;2024-03-25T08:20:17;7;7;5
83597;PMS5003;73565;45.774;15.892;2024-03-25T08:22:17;6;6;5
83597;PMS5003;73565;45.774;15.892;2024-03-25T08:24:17;6;6;4
83597;PMS5003;73565;45.774;15.892;2024-03-25T08:26:17;5;5;4
83597;PMS5003;73565;45.774;15.892;2024-03-25T08:28:17;4;4;3
83597;PMS5003;73565;45.774;15.892;2024-03-25T08:30:17;4;4;3
83597;PMS5003;73565;45.774;15.892;2024-03-25T08:32:16;4;3;2
83597;PMS5003;73565;45.774;15.892;2024-03-25T08:34:17;5;5;4
83597;PMS5003;73565;45.774;15.892;2024-03-25T08:36:16;4;4;3
83597;PMS5003;73565;45.774;15.892;2024-03-25T08:38:17;3;3;2
83597;PMS5003;73565;45.774;15.892;2024-03-25T08:40:17;4;4;4
83597;PMS5003;73565;45.774;15.892;2024-03-25T08:42:17;4;4;3
83597;PMS5003;73565;45.774;15.892;2024-03-25T08:44:16;4;4;3
83597;PMS5003;73565;45.774;15.892;2024-03-25T08:46:17;3;3;3
83597;PMS5003;73565;45.774;15.892;2024-03-25T08:48:17;5;5;3
83597;PMS5003;73565;45.774;15.892;2024-03-25T08:50:17;6;5;4
83597;PMS5003;73565;45.774;15.892;2024-03-25T08:52:17;5;5;3
83597;PMS5003;73565;45.774;15.892;2024-03-25T08:54:17;6;6;5
83597;PMS5003;73565;45.774;15.892;2024-03-25T08:56:17;3;3;3
83597;PMS5003;73565;45.774;15.892;2024-03-25T08:58:17;5;4;3
83597;PMS5003;73565;45.774;15.892;2024-03-25T09:00:47;5;4;4
83597;PMS5003;73565;45.774;15.892;2024-03-25T09:01:57;5;5;4
83597;PMS5003;73565;45.774;15.892;2024-03-25T09:03:57;3;3;3
83597;PMS5003;73565;45.774;15.892;2024-03-25T09:05:57;4;4;4
83597;PMS5003;73565;45.774;15.892;2024-03-25T09:07:57;5;5;5
83597;PMS5003;73565;45.774;15.892;2024-03-25T09:09:57;4;4;4
83597;PMS5003;73565;45.774;15.892;2024-03-25T09:11:57;2;2;2
83597;PMS5003;73565;45.774;15.892;2024-03-25T09:13:57;4;4;4
83597;PMS5003;73565;45.774;15.892;2024-03-25T09:15:57;4;4;3
83597;PMS5003;73565;45.774;15.892;2024-03-25T09:18:19;2;2;1
83597;PMS5003;73565;45.774;15.892;2024-03-25T09:20:13;4;4;3
83597;PMS5003;73565;45.774;15.892;2024-03-25T09:22:13;3;3;3
83597;PMS5003;73565;45.774;15.892;2024-03-25T09:24:13;5;4;3
83597;PMS5003;73565;45.774;15.892;2024-03-25T09:26:13;4;4;4
83597;PMS5003;73565;45.774;15.892;2024-03-25T09:28:13;4;4;3
83597;PMS5003;73565;45.774;15.892;2024-03-25T09:30:13;1;1;1
83597;PMS5003;73565;45.774;15.892;2024-03-25T09:32:13;2;2;2
83597;PMS5003;73565;45.774;15.892;2024-03-25T09:34:13;6;4;3
83597;PMS5003;73565;45.774;15.892;2024-03-25T09:36:13;3;3;3
83597;PMS5003;73565;45.774;15.892;2024-03-25T09:38:13;1;1;1
83597;PMS5003;73565;45.774;15.892;2024-03-25T09:40:13;5;5;3
83597;PMS5003;73565;45.774;15.892;2024-03-25T09:42:14;4;3;2
83597;PMS5003;73565;45.774;15.892;2024-03-25T09:44:13;5;4;4
83597;PMS5003;73565;45.774;15.892;2024-03-25T09:46:13;4;4;3
83597;PMS5003;73565;45.774;15.892;2024-03-25T09:48:13;5;5;4
83597;PMS5003;73565;45.774;15.892;2024-03-25T09:50:13;4;3;3
83597;PMS5003;73565;45.774;15.892;2024-03-25T09:52:13;5;4;3
83597;PMS5003;73565;45.774;15.892;2024-03-25T09:54:13;4;4;3
83597;PMS5003;73565;45.774;15.892;2024-03-25T09:56:13;3;3;3
83597;PMS5003;73565;45.774;15.892;2024-03-25T09:58:13;2;2;2
83597;PMS5003;73565;45.774;15.892;2024-03-25T10:00:13;5;5;4
83597;PMS5003;73565;45.774;15.892;2024-03-25T10:02:13;5;5;4
83597;PMS5003;73565;45.774;15.892;2024-03-25T10:04:13;6;5;3
83597;PMS5003;73565;45.774;15.892;2024-03-25T10:06:13;3;2;2
83597;PMS5003;73565;45.774;15.892;2024-03-25T10:08:13;2;2;2
83597;PMS5003;73565;45.774;15.892;2024-03-25T10:10:13;3;3;3
83597;PMS5003;73565;45.774;15.892;2024-03-25T10:12:13;2;2;2
83597;PMS5003;73565;45.774;15.892;2024-03-25T10:14:13;2;2;1
83597;PMS5003;73565;45.774;15.892;2024-03-25T10:16:13;1;1;1
83597;PMS5003;73565;45.774;15.892;2024-03-25T10:18:15;1;1;1
83597;PMS5003;73565;45.774;15.892;2024-03-25T10:20:17;1;0;0
83597;PMS5003;73565;45.774;15.892;2024-03-25T10:22:13;0;0;0
83597;PMS5003;73565;45.774;15.892;2024-03-25T10:24:13;0;0;0
83597;PMS5003;73565;45.774;15.892;2024-03-25T10:26:23;0;0;0
83597;PMS5003;73565;45.774;15.892;2024-03-25T10:28:13;0;0;0
83597;PMS5003;73565;45.774;15.892;2024-03-25T10:30:13;0;0;0
83597;PMS5003;73565;45.774;15.892;2024-03-25T10:32:13;0;0;0
83597;PMS5003;73565;45.774;15.892;2024-03-25T10:34:13;0;0;0
83597;PMS5003;73565;45.774;15.892;2024-03-25T10:36:13;0;0;0
83597;PMS5003;73565;45.774;15.892;2024-03-25T10:38:13;0;0;0
83597;PMS5003;73565;45.774;15.892;2024-03-25T10:40:13;0;0;0
83597;PMS5003;73565;45.774;15.892;2024-03-25T10:42:13;0;0;0
83597;PMS5003;73565;45.774;15.892;2024-03-25T10:44:13;0;0;0
83597;PMS5003;73565;45.774;15.892;2024-03-25T10:46:13;0;0;0
83597;PMS5003;73565;45.774;15.892;2024-03-25T10:48:15;0;0;0
83597;PMS5003;73565;45.774;15.892;2024-03-25T10:50:13;0;0;0
83597;PMS5003;73565;45.774;15.892;2024-03-25T10:52:13;0;0;0
83597;PMS5003;73565;45.774;15.892;2024-03-25T10:56:23;1;0;0
83597;PMS5003;73565;45.774;15.892;2024-03-25T10:57:17;0;0;0
83597;PMS5003;73565;45.774;15.892;2024-03-25T10:59:10;0;0;0
83597;PMS5003;73565;45.774;15.892;2024-03-25T11:01:10;0;0;0
83597;PMS5003;73565;45.774;15.892;2024-03-25T11:03:22;0;0;0
83597;PMS5003;73565;45.774;15.892;2024-03-25T11:05:10;0;0;0
83597;PMS5003;73565;45.774;15.892;2024-03-25T11:07:13;0;0;0
83597;PMS5003;73565;45.774;15.892;2024-03-25T11:09:10;0;0;0
83597;PMS5003;73565;45.774;15.892;2024-03-25T11:11:15;0;0;0
83597;PMS5003;73565;45.774;15.892;2024-03-25T11:13:14;0;0;0
83597;PMS5003;73565;45.774;15.892;2024-03-25T11:15:10;0;0;0
83597;PMS5003;73565;45.774;15.892;2024-03-25T11:18:05;1;1;1
83597;PMS5003;73565;45.774;15.892;2024-03-25T11:19:43;0;0;0
83597;PMS5003;73565;45.774;15.892;2024-03-25T11:21:44;0;0;0
83597;PMS5003;73565;45.774;15.892;2024-03-25T11:23:44;0;0;0
83597;PMS5003;73565;45.774;15.892;2024-03-25T11:25:44;0;0;0
83597;PMS5003;73565;45.774;15.892;2024-03-25T11:26:40;0;0;0
83597;PMS5003;73565;45.774;15.892;2024-03-25T11:28:07;0;0;0
83597;PMS5003;73565;45.774;15.892;2024-03-25T11:30:08;0;0;0
83597;PMS5003;73565;45.774;15.892;2024-03-25T11:32:07;1;1;1
83597;PMS5003;73565;45.774;15.892;2024-03-25T11:34:07;0;0;0
83597;PMS5003;73565;45.774;15.892;2024-03-25T11:36:09;0;0;0
83597;PMS5003;73565;45.774;15.892;2024-03-25T11:38:07;0;0;0
83597;PMS5003;73565;45.774;15.892;2024-03-25T11:40:08;0;0;0
83597;PMS5003;73565;45.774;15.892;2024-03-25T11:42:08;0;0;0
83597;PMS5003;73565;45.774;15.892;2024-03-25T11:44:07;0;0;0
83597;PMS5003;73565;45.774;15.892;2024-03-25T11:46:07;0;0;0
83597;PMS5003;73565;45.774;15.892;2024-03-25T11:48:07;0;0;0
83597;PMS5003;73565;45.774;15.892;2024-03-25T11:50:11;0;0;0
83597;PMS5003;73565;45.774;15.892;2024-03-25T11:52:07;0;0;0
83597;PMS5003;73565;45.774;15.892;2024-03-25T11:55:07;1;1;1
83597;PMS5003;73565;45.774;15.892;2024-03-25T11:56:19;1;1;1
83597;PMS5003;73565;45.774;15.892;2024-03-25T11:58:19;0;0;0
83597;PMS5003;73565;45.774;15.892;2024-03-25T12:00:19;0;0;0
83597;PMS5003;73565;45.774;15.892;2024-03-25T12:02:19;0;0;0
83597;PMS5003;73565;45.774;15.892;2024-03-25T12:04:19;0;0;0
83597;PMS5003;73565;45.774;15.892;2024-03-25T12:06:19;0;0;0
83597;PMS5003;73565;45.774;15.892;2024-03-25T12:10:45;0;0;0
83597;PMS5003;73565;45.774;15.892;2024-03-25T12:12:46;0;0;0
83597;PMS5003;73565;45.774;15.892;2024-03-25T12:14:45;0;0;0
83597;PMS5003;73565;45.774;15.892;2024-03-25T12:16:45;0;0;0
83597;PMS5003;73565;45.774;15.892;2024-03-25T12:18:45;0;0;0
83597;PMS5003;73565;45.774;15.892;2024-03-25T12:20:45;0;0;0
83597;PMS5003;73565;45.774;15.892;2024-03-25T12:22:45;1;1;1
83597;PMS5003;73565;45.774;15.892;2024-03-25T12:24:45;0;0;0
83597;PMS5003;73565;45.774;15.892;2024-03-25T12:26:45;0;0;0
83597;PMS5003;73565;45.774;15.892;2024-03-25T12:28:45;1;1;1
83597;PMS5003;73565;45.774;15.892;2024-03-25T12:30:52;0;0;0
83597;PMS5003;73565;45.774;15.892;2024-03-25T12:32:45;1;1;0
83597;PMS5003;73565;45.774;15.892;2024-03-25T12:34:46;1;1;1
83597;PMS5003;73565;45.774;15.892;2024-03-25T12:36:45;0;0;0
83597;PMS5003;73565;45.774;15.892;2024-03-25T12:38:53;0;0;0
83597;PMS5003;73565;45.774;15.892;2024-03-25T12:40:45;1;0;0
83597;PMS5003;73565;45.774;15.892;2024-03-25T12:42:45;1;1;1
83597;PMS5003;73565;45.774;15.892;2024-03-25T12:44:45;0;0;0
83597;PMS5003;73565;45.774;15.892;2024-03-25T12:46:45;1;0;0
83597;PMS5003;73565;45.774;15.892;2024-03-25T12:48:45;2;1;1
83597;PMS5003;73565;45.774;15.892;2024-03-25T12:50:45;0;0;0
83597;PMS5003;73565;45.774;15.892;2024-03-25T12:52:45;0;0;0
83597;PMS5003;73565;45.774;15.892;2024-03-25T12:54:45;1;1;1
83597;PMS5003;73565;45.774;15.892;2024-03-25T12:56:45;0;0;0
83597;PMS5003;73565;45.774;15.892;2024-03-25T12:58:45;0;0;0
83597;PMS5003;73565;45.774;15.892;2024-03-25T13:00:45;1;1;0
83597;PMS5003;73565;45.774;15.892;2024-03-25T13:02:45;0;0;0
83597;PMS5003;73565;45.774;15.892;2024-03-25T13:04:45;0;0;0
83597;PMS5003;73565;45.774;15.892;2024-03-25T13:06:45;0;0;0